Time;durP1;ratioP1;P1;durP2;ratioP2;P2;SDS_P1;SDS_P2;PMS_P1;PMS_P2;Temp;Humidity;BMP_temperature;BMP_pressure;BME280_temperature;BME280_humidity;BME280_pressure;Samples;Min_cycle;Max_cycle;Signal;HPM_P1;HPM_P2
2023/07/07 00:01:02;;;;;;;14.05;12.63;;;;;;;;;;5061049;28;20103;-76
2023/07/07 00:03:27;;;;;;;18.15;14.75;;;;;;;;;;5058959;28;20112;-76
2023/07/07 00:05:53;;;;;;;19.20;15.68;;;;;;;;;;5048067;28;20032;-76
2023/07/07 00:08:18;;;;;;;27.60;15.90;;;;;;;;;;5048952;28;20063;-76
2023/07/07 00:10:44;;;;;;;17.63;15.77;;;;;;;;;;5046322;28;20304;-77
2023/07/07 00:13:11;;;;;;;17.13;15.25;;;;;;;;;;5048004;28;20108;-76
2023/07/07 00:15:36;;;;;;;16.35;14.77;;;;;;;;;;5045856;28;20599;-76
2023/07/07 00:18:03;;;;;;;16.70;14.95;;;;;;;;;;5047550;28;20040;-76
2023/07/07 00:20:31;;;;;;;23.90;14.20;;;;;;;;;;5061448;28;20487;-77
2023/07/07 00:22:58;;;;;;;17.42;14.68;;;;;;;;;;5046229;28;20110;-76
2023/07/07 00:25:24;;;;;;;15.60;14.02;;;;;;;;;;5047163;28;20040;-77
2023/07/07 00:27:50;;;;;;;21.08;16.30;;;;;;;;;;5047887;28;20058;-77
2023/07/07 00:30:16;;;;;;;16.85;15.23;;;;;;;;;;5045430;28;20116;-77
2023/07/07 00:32:42;;;;;;;19.67;17.92;;;;;;;;;;5045231;28;20032;-76
2023/07/07 00:35:07;;;;;;;21.13;19.20;;;;;;;;;;5046691;28;20033;-77
2023/07/07 00:37:34;;;;;;;21.65;19.52;;;;;;;;;;5056299;28;20024;-77
2023/07/07 00:39:59;;;;;;;21.92;18.45;;;;;;;;;;5060276;28;20047;-76
2023/07/07 00:42:24;;;;;;;22.88;19.20;;;;;;;;;;5059359;28;20305;-76
2023/07/07 00:45:05;;;;;;;20.92;18.98;;;;;;;;;;5060360;28;20360;-77
2023/07/07 00:47:31;;;;;;;19.75;17.98;;;;;;;;;;5054390;28;20497;-74
2023/07/07 00:49:56;;;;;;;19.30;17.45;;;;;;;;;;5046974;28;20021;-76
2023/07/07 00:52:22;;;;;;;19.65;17.65;;;;;;;;;;5058066;28;20024;-75
2023/07/07 00:54:48;;;;;;;22.58;19.17;;;;;;;;;;5052687;28;20047;-75
2023/07/07 00:57:13;;;;;;;19.17;17.58;;;;;;;;;;5060150;28;20017;-77
2023/07/07 00:59:40;;;;;;;20.73;18.58;;;;;;;;;;5058417;28;20054;-77
2023/07/07 01:02:09;;;;;;;21.02;18.92;;;;;;;;;;5060011;28;20507;-77
2023/07/07 01:04:34;;;;;;;23.25;20.88;;;;;;;;;;5053876;28;20031;-76
2023/07/07 01:07:02;;;;;;;23.88;19.77;;;;;;;;;;5053162;28;20048;-76
2023/07/07 01:09:28;;;;;;;23.10;20.75;;;;;;;;;;5057856;28;20028;-74
2023/07/07 01:11:54;;;;;;;23.58;21.35;;;;;;;;;;5050005;28;20445;-76
2023/07/07 01:14:21;;;;;;;24.65;21.75;;;;;;;;;;5060294;28;20024;-75
2023/07/07 01:16:56;;;;;;;25.42;22.83;;;;;;;;;;5061030;28;20111;-76
2023/07/07 01:19:40;;;;;;;28.60;25.58;;;;;;;;;;5047581;28;20052;-77
2023/07/07 01:22:34;;;;;;;27.17;24.10;;;;;;;;;;5058527;28;20432;-75
2023/07/07 01:25:12;;;;;;;25.63;22.98;;;;;;;;;;5060096;28;20446;-76
2023/07/07 01:27:56;;;;;;;28.08;22.73;;;;;;;;;;5055299;28;20107;-76
2023/07/07 01:30:22;;;;;;;27.65;23.98;;;;;;;;;;5055801;28;20522;-76
2023/07/07 01:32:48;;;;;;;28.33;25.38;;;;;;;;;;5060894;28;20067;-74
2023/07/07 01:35:16;;;;;;;26.27;23.65;;;;;;;;;;5049450;28;20027;-76
2023/07/07 01:37:49;;;;;;;27.13;24.35;;;;;;;;;;5061590;28;20028;-75
2023/07/07 01:40:15;;;;;;;26.98;24.13;;;;;;;;;;5049590;28;20040;-76
2023/07/07 01:42:45;;;;;;;27.95;25.33;;;;;;;;;;5059501;28;20016;-77
2023/07/07 01:45:14;;;;;;;29.52;26.52;;;;;;;;;;5054881;28;20491;-77
2023/07/07 01:47:43;;;;;;;29.05;26.13;;;;;;;;;;5062716;28;20026;-76
2023/07/07 01:50:09;;;;;;;29.73;26.83;;;;;;;;;;5051812;28;20573;-76
2023/07/07 01:52:41;;;;;;;29.77;26.67;;;;;;;;;;5063807;28;20214;-76
2023/07/07 01:55:12;;;;;;;29.77;27.15;;;;;;;;;;5051104;28;20028;-77
2023/07/07 01:57:39;;;;;;;29.60;26.85;;;;;;;;;;5059505;28;21155;-76
2023/07/07 02:00:04;;;;;;;30.70;27.65;;;;;;;;;;5052713;28;20097;-76
2023/07/07 02:02:31;;;;;;;29.00;26.27;;;;;;;;;;5061901;28;20028;-76
2023/07/07 02:04:57;;;;;;;31.13;28.23;;;;;;;;;;5051379;28;20490;-77
2023/07/07 02:07:22;;;;;;;31.55;28.58;;;;;;;;;;5049586;28;20136;-77
2023/07/07 02:09:48;;;;;;;31.27;27.67;;;;;;;;;;5049093;28;20131;-76
2023/07/07 02:12:13;;;;;;;32.60;29.33;;;;;;;;;;5049980;28;20024;-77
2023/07/07 02:14:39;;;;;;;32.15;29.23;;;;;;;;;;5051004;28;20033;-76
2023/07/07 02:17:05;;;;;;;31.55;28.75;;;;;;;;;;5050597;28;20032;-77
2023/07/07 02:19:30;;;;;;;28.17;25.35;;;;;;;;;;5051168;28;20034;-77
2023/07/07 02:21:55;;;;;;;28.92;25.92;;;;;;;;;;5050046;28;20052;-77
2023/07/07 02:24:22;;;;;;;30.38;27.25;;;;;;;;;;5049510;28;20032;-76
2023/07/07 02:26:49;;;;;;;27.92;25.50;;;;;;;;;;5057977;28;20028;-77
2023/07/07 02:29:15;;;;;;;27.92;25.15;;;;;;;;;;5077993;28;20024;-77
2023/07/07 02:31:40;;;;;;;28.17;25.20;;;;;;;;;;5059977;28;20039;-78
2023/07/07 02:34:06;;;;;;;28.40;25.38;;;;;;;;;;5055959;28;20024;-77
2023/07/07 02:36:32;;;;;;;27.90;25.17;;;;;;;;;;5055215;28;20487;-78
2023/07/07 02:38:57;;;;;;;28.27;25.38;;;;;;;;;;5061519;28;20466;-77
2023/07/07 02:41:23;;;;;;;29.13;26.50;;;;;;;;;;5063142;28;20431;-75
2023/07/07 02:43:48;;;;;;;31.45;28.20;;;;;;;;;;5056930;28;20363;-75
2023/07/07 02:46:13;;;;;;;30.77;27.77;;;;;;;;;;5056315;28;20040;-76
2023/07/07 02:48:40;;;;;;;31.48;28.65;;;;;;;;;;5063289;28;20058;-76
2023/07/07 02:51:06;;;;;;;31.73;28.77;;;;;;;;;;5061574;28;20031;-77
2023/07/07 02:53:35;;;;;;;30.23;27.55;;;;;;;;;;5060656;28;20025;-77
2023/07/07 02:56:00;;;;;;;32.03;28.77;;;;;;;;;;5053614;28;20413;-75
2023/07/07 02:58:26;;;;;;;32.88;29.67;;;;;;;;;;5057724;28;20028;-74
2023/07/07 03:00:52;;;;;;;31.77;28.67;;;;;;;;;;5061863;28;20028;-77
2023/07/07 03:03:18;;;;;;;33.63;30.45;;;;;;;;;;5056487;28;20085;-76
2023/07/07 03:05:43;;;;;;;34.28;31.17;;;;;;;;;;5046670;28;20029;-77
2023/07/07 03:08:09;;;;;;;34.75;31.17;;;;;;;;;;5060914;28;20052;-77
2023/07/07 03:10:35;;;;;;;32.30;28.90;;;;;;;;;;5061394;28;20420;-77
2023/07/07 03:13:00;;;;;;;33.05;29.80;;;;;;;;;;5055448;28;20359;-76
2023/07/07 03:15:38;;;;;;;33.00;29.80;;;;;;;;;;5049523;28;20111;-77
2023/07/07 03:18:07;;;;;;;33.00;30.00;;;;;;;;;;5057209;28;20110;-76
2023/07/07 03:20:32;;;;;;;32.17;29.00;;;;;;;;;;5047610;28;20442;-76
2023/07/07 03:22:58;;;;;;;31.35;28.25;;;;;;;;;;5058654;28;20119;-76
2023/07/07 03:25:25;;;;;;;33.20;30.02;;;;;;;;;;5061407;28;20063;-76
2023/07/07 03:27:51;;;;;;;32.10;28.85;;;;;;;;;;5062734;28;20078;-76
2023/07/07 03:30:16;;;;;;;35.33;31.90;;;;;;;;;;5050167;28;20017;-76
2023/07/07 03:32:42;;;;;;;33.78;30.58;;;;;;;;;;5050655;28;20024;-76
2023/07/07 03:35:07;;;;;;;33.92;30.75;;;;;;;;;;5050625;28;20481;-78
2023/07/07 03:37:32;;;;;;;33.55;30.30;;;;;;;;;;5061643;28;20043;-77
2023/07/07 03:39:58;;;;;;;33.50;30.50;;;;;;;;;;5060391;28;20109;-77
2023/07/07 03:42:23;;;;;;;31.88;29.13;;;;;;;;;;5061770;28;20039;-77
2023/07/07 03:44:48;;;;;;;30.42;27.33;;;;;;;;;;5061940;28;20024;-77
2023/07/07 03:47:14;;;;;;;29.60;26.65;;;;;;;;;;5050168;28;20068;-74
2023/07/07 03:49:39;;;;;;;30.73;27.75;;;;;;;;;;5048837;28;20115;-77
2023/07/07 03:52:06;;;;;;;31.17;28.17;;;;;;;;;;5058431;28;20367;-78
2023/07/07 03:54:31;;;;;;;29.77;26.98;;;;;;;;;;5060248;28;20016;-77
2023/07/07 03:56:57;;;;;;;32.13;28.25;;;;;;;;;;5061463;28;20032;-77
2023/07/07 03:59:23;;;;;;;28.85;26.23;;;;;;;;;;5061557;28;20042;-77
2023/07/07 04:01:49;;;;;;;29.27;26.65;;;;;;;;;;5050292;28;20028;-77
2023/07/07 04:04:14;;;;;;;27.85;25.30;;;;;;;;;;5040414;28;20043;-76
2023/07/07 04:06:40;;;;;;;29.10;26.30;;;;;;;;;;5044821;28;20047;-77
2023/07/07 04:09:06;;;;;;;30.70;27.90;;;;;;;;;;5043841;28;20103;-77
2023/07/07 04:11:31;;;;;;;29.58;26.67;;;;;;;;;;5045510;28;20033;-77
2023/07/07 04:13:57;;;;;;;31.10;27.77;;;;;;;;;;5043245;28;20028;-77
2023/07/07 04:16:23;;;;;;;29.55;26.90;;;;;;;;;;5045713;28;20020;-76
2023/07/07 04:18:53;;;;;;;30.85;27.27;;;;;;;;;;5045333;28;20340;-78
2023/07/07 04:21:20;;;;;;;29.20;26.50;;;;;;;;;;5043994;28;20040;-77
2023/07/07 04:23:46;;;;;;;31.73;28.83;;;;;;;;;;5046939;28;20040;-78
2023/07/07 04:26:11;;;;;;;31.85;28.95;;;;;;;;;;5059995;28;20040;-77
2023/07/07 04:28:37;;;;;;;31.00;27.75;;;;;;;;;;5061219;28;20070;-78
2023/07/07 04:31:03;;;;;;;29.55;26.95;;;;;;;;;;5058405;28;20045;-77
2023/07/07 04:33:29;;;;;;;29.27;26.38;;;;;;;;;;5045846;28;20087;-76
2023/07/07 04:35:56;;;;;;;30.83;28.02;;;;;;;;;;5053964;28;20044;-78
2023/07/07 04:38:23;;;;;;;30.30;27.20;;;;;;;;;;5059990;28;20031;-77
2023/07/07 04:40:48;;;;;;;28.40;25.75;;;;;;;;;;5060847;28;20088;-77
2023/07/07 04:43:14;;;;;;;28.98;26.27;;;;;;;;;;5057851;28;20035;-76
2023/07/07 04:45:39;;;;;;;29.13;26.02;;;;;;;;;;5044968;28;20033;-76
2023/07/07 04:48:06;;;;;;;29.83;26.85;;;;;;;;;;5047371;28;20444;-76
2023/07/07 04:50:33;;;;;;;30.98;28.15;;;;;;;;;;5058591;28;20029;-77
2023/07/07 04:52:58;;;;;;;31.58;28.67;;;;;;;;;;5059696;28;20132;-76
2023/07/07 04:55:23;;;;;;;31.75;28.50;;;;;;;;;;5067436;28;20116;-77
2023/07/07 04:57:50;;;;;;;31.83;28.40;;;;;;;;;;5047297;28;20025;-77
2023/07/07 05:00:15;;;;;;;30.05;27.08;;;;;;;;;;5046023;28;20395;-76
2023/07/07 05:02:40;;;;;;;29.75;27.05;;;;;;;;;;5059088;28;20024;-77
2023/07/07 05:05:06;;;;;;;30.15;27.40;;;;;;;;;;5055739;28;20039;-77
2023/07/07 05:07:31;;;;;;;29.38;26.77;;;;;;;;;;5054930;28;20053;-77
2023/07/07 05:09:57;;;;;;;31.23;28.02;;;;;;;;;;5060714;28;20331;-76
2023/07/07 05:12:22;;;;;;;28.80;26.00;;;;;;;;;;5061118;28;20186;-78
2023/07/07 05:14:47;;;;;;;29.88;26.98;;;;;;;;;;5059431;28;20101;-76
2023/07/07 05:17:13;;;;;;;33.47;30.10;;;;;;;;;;5059215;28;20085;-77
2023/07/07 05:19:38;;;;;;;28.42;25.60;;;;;;;;;;5048947;28;20024;-77
2023/07/07 05:22:04;;;;;;;29.60;26.38;;;;;;;;;;5051540;28;20139;-76
2023/07/07 05:24:29;;;;;;;26.90;24.30;;;;;;;;;;5062999;28;20036;-77
2023/07/07 05:26:55;;;;;;;26.75;23.88;;;;;;;;;;5064662;28;20024;-77
2023/07/07 05:29:22;;;;;;;28.63;25.70;;;;;;;;;;5063028;28;20032;-77
2023/07/07 05:31:48;;;;;;;26.85;24.25;;;;;;;;;;5064255;28;20086;-77
2023/07/07 05:34:13;;;;;;;27.38;24.75;;;;;;;;;;5063280;28;20036;-77
2023/07/07 05:36:38;;;;;;;27.30;24.65;;;;;;;;;;5061061;28;20057;-77
2023/07/07 05:39:06;;;;;;;25.10;22.73;;;;;;;;;;5062779;28;20818;-78
2023/07/07 05:41:31;;;;;;;26.45;23.95;;;;;;;;;;5062490;28;20070;-77
2023/07/07 05:43:57;;;;;;;25.65;23.25;;;;;;;;;;5064469;28;20033;-77
2023/07/07 05:46:22;;;;;;;25.80;23.35;;;;;;;;;;5064428;28;20100;-77
2023/07/07 05:48:47;;;;;;;27.00;24.13;;;;;;;;;;5063807;28;20081;-78
2023/07/07 05:51:14;;;;;;;25.33;23.00;;;;;;;;;;5063449;28;20123;-77
2023/07/07 05:53:42;;;;;;;27.23;24.65;;;;;;;;;;5063318;28;20020;-77
2023/07/07 05:56:17;;;;;;;28.80;24.20;;;;;;;;;;5064021;28;20059;-77
2023/07/07 05:58:42;;;;;;;27.60;22.50;;;;;;;;;;5063044;28;20353;-76
2023/07/07 06:01:10;;;;;;;25.70;23.35;;;;;;;;;;5061918;28;20063;-77
2023/07/07 06:03:37;;;;;;;25.23;22.77;;;;;;;;;;5060954;28;20414;-76
2023/07/07 06:06:03;;;;;;;24.75;22.42;;;;;;;;;;5054964;28;20029;-76
2023/07/07 06:08:29;;;;;;;23.95;21.75;;;;;;;;;;5063885;28;20053;-75
2023/07/07 06:10:56;;;;;;;25.92;22.35;;;;;;;;;;5056217;28;20021;-76
2023/07/07 06:13:24;;;;;;;24.20;21.95;;;;;;;;;;5054538;28;20119;-75
2023/07/07 06:15:52;;;;;;;22.60;20.40;;;;;;;;;;5061842;28;20032;-77
2023/07/07 06:18:17;;;;;;;25.75;20.98;;;;;;;;;;5059537;28;20021;-75
2023/07/07 06:20:46;;;;;;;22.05;19.95;;;;;;;;;;5062088;28;20082;-74
2023/07/07 06:23:12;;;;;;;22.35;20.35;;;;;;;;;;5060503;28;20032;-74
2023/07/07 06:25:37;;;;;;;21.73;19.73;;;;;;;;;;5063375;28;20348;-75
2023/07/07 06:28:02;;;;;;;22.73;20.63;;;;;;;;;;5059458;28;20028;-77
2023/07/07 06:30:28;;;;;;;21.52;19.58;;;;;;;;;;5061352;28;20028;-75
2023/07/07 06:32:54;;;;;;;21.63;19.48;;;;;;;;;;5061438;28;20127;-76
2023/07/07 06:35:19;;;;;;;20.98;19.02;;;;;;;;;;5061986;28;20563;-76
2023/07/07 06:37:46;;;;;;;23.75;20.92;;;;;;;;;;5061454;28;20058;-77
2023/07/07 06:40:14;;;;;;;21.17;19.30;;;;;;;;;;5077653;28;20064;-77
2023/07/07 06:42:39;;;;;;;22.88;20.90;;;;;;;;;;5061309;28;20094;-76
2023/07/07 06:45:05;;;;;;;24.98;22.58;;;;;;;;;;5063162;28;20451;-77
2023/07/07 06:47:31;;;;;;;24.17;21.80;;;;;;;;;;5060948;28;20358;-75
2023/07/07 06:49:58;;;;;;;21.40;19.45;;;;;;;;;;5061546;28;21065;-76
2023/07/07 06:52:23;;;;;;;22.58;20.45;;;;;;;;;;5061302;28;20016;-75
2023/07/07 06:54:50;;;;;;;21.85;19.98;;;;;;;;;;5061463;28;20356;-76
2023/07/07 06:57:18;;;;;;;23.75;21.23;;;;;;;;;;5063015;28;20115;-75
2023/07/07 06:59:43;;;;;;;25.42;22.70;;;;;;;;;;5062154;28;20021;-76
2023/07/07 07:02:10;;;;;;;23.90;21.58;;;;;;;;;;5061584;28;20360;-75
2023/07/07 07:04:37;;;;;;;22.80;20.67;;;;;;;;;;5062985;28;20040;-75
2023/07/07 07:07:02;;;;;;;22.77;20.70;;;;;;;;;;5060759;28;20391;-75
2023/07/07 07:09:28;;;;;;;23.60;21.17;;;;;;;;;;5074948;28;20020;-74
2023/07/07 07:11:53;;;;;;;22.90;20.58;;;;;;;;;;5077722;28;20421;-75
2023/07/07 07:14:20;;;;;;;24.35;22.10;;;;;;;;;;5060259;28;20024;-76
2023/07/07 07:16:46;;;;;;;29.40;21.48;;;;;;;;;;5061452;28;20032;-75
2023/07/07 07:19:11;;;;;;;23.65;20.73;;;;;;;;;;5060686;28;20037;-74
2023/07/07 07:21:37;;;;;;;21.27;19.33;;;;;;;;;;5062374;28;20063;-75
2023/07/07 07:24:05;;;;;;;23.45;20.98;;;;;;;;;;5060060;28;20329;-75
2023/07/07 07:26:30;;;;;;;20.75;18.75;;;;;;;;;;5025059;28;20032;-75
2023/07/07 07:28:58;;;;;;;20.38;18.52;;;;;;;;;;5057984;28;20032;-75
2023/07/07 07:31:26;;;;;;;19.88;18.08;;;;;;;;;;5057948;28;20497;-75
2023/07/07 07:33:56;;;;;;;21.48;19.48;;;;;;;;;;5060631;28;20115;-77
2023/07/07 07:36:21;;;;;;;20.63;18.60;;;;;;;;;;5076109;28;20025;-77
2023/07/07 07:38:47;;;;;;;21.23;19.13;;;;;;;;;;5059935;28;20102;-75
2023/07/07 07:41:14;;;;;;;20.98;18.90;;;;;;;;;;5077475;28;20044;-75
2023/07/07 07:43:42;;;;;;;21.38;19.25;;;;;;;;;;5061405;28;20036;-76
2023/07/07 07:46:09;;;;;;;20.08;18.35;;;;;;;;;;5059403;28;20139;-75
2023/07/07 07:48:34;;;;;;;23.60;18.77;;;;;;;;;;5061871;28;20097;-75
2023/07/07 07:51:00;;;;;;;18.92;17.25;;;;;;;;;;5060553;28;20440;-75
2023/07/07 07:53:25;;;;;;;19.33;17.58;;;;;;;;;;5060817;28;20038;-75
2023/07/07 07:55:51;;;;;;;18.52;16.92;;;;;;;;;;5076488;28;20347;-77
2023/07/07 07:58:16;;;;;;;18.27;16.67;;;;;;;;;;5061275;28;20321;-77
2023/07/07 08:00:43;;;;;;;18.55;16.65;;;;;;;;;;5060799;28;20078;-76
2023/07/07 08:03:08;;;;;;;19.27;17.50;;;;;;;;;;5062049;28;20114;-75
2023/07/07 08:05:33;;;;;;;18.63;16.92;;;;;;;;;;5060786;28;20032;-75
2023/07/07 08:07:59;;;;;;;18.73;17.10;;;;;;;;;;5076195;28;20052;-75
2023/07/07 08:10:25;;;;;;;17.05;15.40;;;;;;;;;;5061729;28;20094;-75
2023/07/07 08:12:50;;;;;;;17.45;15.80;;;;;;;;;;5055701;28;20493;-76
2023/07/07 08:15:15;;;;;;;17.30;15.73;;;;;;;;;;5060131;28;20020;-74
2023/07/07 08:17:41;;;;;;;18.20;15.80;;;;;;;;;;5060773;28;20060;-75
2023/07/07 08:20:14;;;;;;;17.33;15.77;;;;;;;;;;5073403;28;20677;-75
2023/07/07 08:22:39;;;;;;;16.83;15.30;;;;;;;;;;5060475;28;20058;-75
2023/07/07 08:25:08;;;;;;;16.38;14.95;;;;;;;;;;5061037;28;20036;-75
2023/07/07 08:27:37;;;;;;;16.90;15.40;;;;;;;;;;5059990;28;20075;-76
2023/07/07 08:30:04;;;;;;;17.35;15.80;;;;;;;;;;5073780;28;20044;-75
2023/07/07 08:32:29;;;;;;;17.27;15.68;;;;;;;;;;5061391;28;20444;-76
2023/07/07 08:34:55;;;;;;;20.02;15.70;;;;;;;;;;5057019;28;20036;-77
2023/07/07 08:37:23;;;;;;;19.52;17.45;;;;;;;;;;5059064;28;20020;-75
2023/07/07 08:42:52;;;;;;;15.82;14.32;;;;;;;;;;5068389;28;20422;-75
2023/07/07 08:45:19;;;;;;;15.32;13.93;;;;;;;;;;5069577;28;20040;-74
2023/07/07 08:47:54;;;;;;;16.35;14.45;;;;;;;;;;5072141;28;20413;-75
2023/07/07 08:50:31;;;;;;;15.48;13.73;;;;;;;;;;5073258;28;20016;-75
2023/07/07 08:53:21;;;;;;;13.90;12.45;;;;;;;;;;5076374;28;20074;-75
2023/07/07 08:55:56;;;;;;;14.85;13.55;;;;;;;;;;5076672;28;20419;-74
2023/07/07 08:58:40;;;;;;;14.90;13.38;;;;;;;;;;5076572;28;20100;-75
2023/07/07 09:01:13;;;;;;;13.10;12.00;;;;;;;;;;5072115;28;20098;-75
2023/07/07 09:03:47;;;;;;;13.05;11.80;;;;;;;;;;5062860;28;20033;-76
2023/07/07 09:06:25;;;;;;;14.23;12.85;;;;;;;;;;5059194;28;20032;-77
2023/07/07 09:08:56;;;;;;;13.25;11.95;;;;;;;;;;5061694;28;20024;-75
2023/07/07 09:11:44;;;;;;;13.30;12.00;;;;;;;;;;5059936;28;20360;-76
2023/07/07 09:14:11;;;;;;;13.68;12.27;;;;;;;;;;5057649;28;20041;-75
2023/07/07 09:16:38;;;;;;;13.82;12.55;;;;;;;;;;5061458;28;20142;-75
2023/07/07 09:19:12;;;;;;;14.02;12.70;;;;;;;;;;5063062;28;20024;-75
2023/07/07 09:21:48;;;;;;;13.25;11.88;;;;;;;;;;5062342;28;20036;-76
2023/07/07 09:24:16;;;;;;;13.70;12.32;;;;;;;;;;5060205;28;20024;-76
2023/07/07 09:26:42;;;;;;;13.20;11.90;;;;;;;;;;5061354;28;20035;-76
2023/07/07 09:29:14;;;;;;;14.18;12.65;;;;;;;;;;5062886;28;20036;-75
2023/07/07 09:31:39;;;;;;;13.45;12.13;;;;;;;;;;5063898;28;20017;-75
2023/07/07 09:34:04;;;;;;;14.68;13.38;;;;;;;;;;5060800;28;20043;-76
2023/07/07 09:36:41;;;;;;;14.05;12.85;;;;;;;;;;5060776;28;20046;-76
2023/07/07 09:39:12;;;;;;;14.10;12.70;;;;;;;;;;5061224;28;20035;-75
2023/07/07 09:41:45;;;;;;;14.27;12.88;;;;;;;;;;5064300;28;20359;-75
2023/07/07 09:44:10;;;;;;;15.40;14.10;;;;;;;;;;5053395;28;20017;-75
2023/07/07 09:46:40;;;;;;;13.68;12.50;;;;;;;;;;5051206;28;20040;-76
2023/07/07 09:49:14;;;;;;;13.30;11.95;;;;;;;;;;5051528;28;20074;-75
2023/07/07 09:51:39;;;;;;;16.38;13.38;;;;;;;;;;5049633;28;20154;-74
2023/07/07 09:54:08;;;;;;;15.18;13.20;;;;;;;;;;5049224;28;20104;-77
2023/07/07 09:56:46;;;;;;;16.95;13.23;;;;;;;;;;5049801;28;20059;-76
2023/07/07 09:59:17;;;;;;;12.55;11.43;;;;;;;;;;5050323;28;20452;-76
2023/07/07 10:01:45;;;;;;;13.10;11.80;;;;;;;;;;5047574;28;20461;-77
2023/07/07 10:04:15;;;;;;;12.48;11.27;;;;;;;;;;5050708;28;20024;-74
2023/07/07 10:06:48;;;;;;;13.10;11.80;;;;;;;;;;5049011;28;20057;-75
2023/07/07 10:09:14;;;;;;;12.30;11.30;;;;;;;;;;5048768;28;20020;-77
2023/07/07 10:11:41;;;;;;;12.43;10.82;;;;;;;;;;5050139;28;20055;-75
2023/07/07 10:14:07;;;;;;;10.95;10.05;;;;;;;;;;5048642;28;20032;-76
2023/07/07 10:16:44;;;;;;;11.68;10.68;;;;;;;;;;5051944;28;20032;-76
2023/07/07 10:19:11;;;;;;;12.82;10.57;;;;;;;;;;5054734;28;20033;-77
2023/07/07 10:21:37;;;;;;;11.88;10.32;;;;;;;;;;5053735;28;20902;-76
2023/07/07 10:24:03;;;;;;;10.00;9.10;;;;;;;;;;5050594;28;20126;-77
2023/07/07 10:26:29;;;;;;;9.88;8.88;;;;;;;;;;5048586;28;20447;-75
2023/07/07 10:28:55;;;;;;;10.25;9.25;;;;;;;;;;5052354;28;20329;-77
2023/07/07 10:31:23;;;;;;;10.68;9.65;;;;;;;;;;5055547;28;20116;-77
2023/07/07 10:33:50;;;;;;;11.13;9.68;;;;;;;;;;5054507;28;20029;-77
2023/07/07 10:36:22;;;;;;;11.13;10.10;;;;;;;;;;5055667;28;20877;-75
2023/07/07 10:38:48;;;;;;;11.32;10.20;;;;;;;;;;5052886;28;20098;-76
2023/07/07 10:41:13;;;;;;;10.20;9.30;;;;;;;;;;5052399;28;20045;-75
2023/07/07 10:43:40;;;;;;;10.07;9.18;;;;;;;;;;5055354;28;20033;-76
2023/07/07 10:46:10;;;;;;;11.07;10.18;;;;;;;;;;5054771;28;20043;-76
2023/07/07 10:48:39;;;;;;;12.13;11.02;;;;;;;;;;5054674;28;20031;-76
2023/07/07 10:51:04;;;;;;;;;;;;;;;;;;5054406;28;20454;-79
2023/07/07 10:54:01;;;;;;;11.57;10.47;;;;;;;;;;5053769;28;19974;-75
2023/07/07 10:56:32;;;;;;;12.20;11.20;;;;;;;;;;5052835;28;20128;-75
2023/07/07 10:58:59;;;;;;;11.57;10.48;;;;;;;;;;5055829;28;20039;-77
2023/07/07 11:01:27;;;;;;;12.25;10.63;;;;;;;;;;5055643;28;20025;-77
2023/07/07 11:03:52;;;;;;;12.23;11.00;;;;;;;;;;5055094;28;20039;-76
2023/07/07 11:06:24;;;;;;;11.43;10.32;;;;;;;;;;5053421;28;20998;-77
2023/07/07 11:08:49;;;;;;;11.07;9.98;;;;;;;;;;5053162;28;20463;-75
2023/07/07 11:11:19;;;;;;;10.88;9.98;;;;;;;;;;5057096;28;20028;-76
2023/07/07 11:13:44;;;;;;;11.20;10.10;;;;;;;;;;5055447;28;20117;-76
2023/07/07 11:16:26;;;;;;;10.00;9.07;;;;;;;;;;5053618;28;20075;-76
2023/07/07 11:19:10;;;;;;;9.57;8.77;;;;;;;;;;5054640;28;20025;-75
2023/07/07 11:21:53;;;;;;;9.40;8.43;;;;;;;;;;5054107;28;20030;-77
2023/07/07 11:24:34;;;;;;;9.20;8.32;;;;;;;;;;5052415;28;20029;-76
2023/07/07 11:27:20;;;;;;;10.30;7.82;;;;;;;;;;5055698;28;20025;-75
2023/07/07 11:29:53;;;;;;;8.93;8.02;;;;;;;;;;5061373;28;20048;-75
2023/07/07 11:32:51;;;;;;;9.82;7.40;;;;;;;;;;5059640;28;20044;-75
2023/07/07 11:35:29;;;;;;;10.35;9.10;;;;;;;;;;5018982;28;20112;-74
2023/07/07 11:38:23;;;;;;;9.30;8.50;;;;;;;;;;5016762;28;20051;-74
2023/07/07 11:40:51;;;;;;;8.55;7.80;;;;;;;;;;4984815;28;20082;-75
2023/07/07 11:43:16;;;;;;;7.78;7.07;;;;;;;;;;4988695;28;20049;-76
2023/07/07 11:45:45;;;;;;;8.85;7.88;;;;;;;;;;4997559;28;20485;-75
2023/07/07 11:48:13;;;;;;;8.70;7.80;;;;;;;;;;4998367;28;20049;-74
2023/07/07 11:51:05;;;;;;;8.73;7.82;;;;;;;;;;4997095;28;20041;-74
2023/07/07 11:53:49;;;;;;;8.45;7.75;;;;;;;;;;4984550;28;20607;-75
2023/07/07 11:56:32;;;;;;;7.78;7.07;;;;;;;;;;4996316;28;20021;-74
2023/07/07 11:59:03;;;;;;;8.68;6.70;;;;;;;;;;4997103;28;20038;-76
2023/07/07 12:01:37;;;;;;;9.32;8.43;;;;;;;;;;4998065;28;20467;-76
2023/07/07 12:04:17;;;;;;;8.82;8.02;;;;;;;;;;4997741;28;20052;-75
2023/07/07 12:06:45;;;;;;;7.80;7.20;;;;;;;;;;4980969;28;20047;-75
2023/07/07 12:09:11;;;;;;;8.63;7.93;;;;;;;;;;4960174;28;20034;-74
2023/07/07 12:11:41;;;;;;;8.25;7.47;;;;;;;;;;5003999;28;20128;-74
2023/07/07 12:14:26;;;;;;;9.15;8.32;;;;;;;;;;5012345;28;20461;-74
2023/07/07 12:16:53;;;;;;;8.07;7.38;;;;;;;;;;5022835;28;20047;-74
2023/07/07 12:19:42;;;;;;;8.85;7.95;;;;;;;;;;5074904;28;20036;-75
2023/07/07 12:22:14;;;;;;;9.52;7.68;;;;;;;;;;5057743;28;20068;-75
2023/07/07 12:24:42;;;;;;;8.43;7.70;;;;;;;;;;5058930;28;20544;-75
2023/07/07 12:27:19;;;;;;;8.43;7.70;;;;;;;;;;5057857;28;20082;-75
2023/07/07 12:29:50;;;;;;;11.02;8.75;;;;;;;;;;5058690;28;20033;-74
2023/07/07 12:32:15;;;;;;;8.70;7.82;;;;;;;;;;5055567;28;20381;-75
2023/07/07 12:34:44;;;;;;;10.45;8.27;;;;;;;;;;5056900;28;20028;-73
2023/07/07 12:37:18;;;;;;;9.00;8.20;;;;;;;;;;5057626;28;20321;-75
2023/07/07 12:39:51;;;;;;;7.97;7.28;;;;;;;;;;5059705;28;20121;-75
2023/07/07 12:42:17;;;;;;;7.63;6.93;;;;;;;;;;5057457;28;20029;-75
2023/07/07 12:44:42;;;;;;;7.90;7.10;;;;;;;;;;5058928;28;20032;-75
2023/07/07 12:47:18;;;;;;;7.82;7.20;;;;;;;;;;5055773;28;20028;-76
2023/07/07 12:49:50;;;;;;;8.65;7.60;;;;;;;;;;5056907;28;20115;-74
2023/07/07 12:52:16;;;;;;;8.07;7.38;;;;;;;;;;5069346;28;20028;-75
2023/07/07 12:54:50;;;;;;;8.30;7.50;;;;;;;;;;5054216;28;20062;-75
2023/07/07 12:57:15;;;;;;;7.90;7.20;;;;;;;;;;5050210;28;20394;-76
2023/07/07 12:59:40;;;;;;;8.32;7.63;;;;;;;;;;5054893;28;20081;-74
2023/07/07 13:02:13;;;;;;;7.80;7.07;;;;;;;;;;5072047;28;20502;-74
2023/07/07 13:04:39;;;;;;;8.68;7.88;;;;;;;;;;5052987;28;20028;-76
2023/07/07 13:07:06;;;;;;;7.85;7.15;;;;;;;;;;5052710;28;20451;-77
2023/07/07 13:09:48;;;;;;;8.00;7.30;;;;;;;;;;5056146;28;20467;-75
2023/07/07 13:12:32;;;;;;;9.38;8.10;;;;;;;;;;5058445;28;20036;-76
2023/07/07 13:15:11;;;;;;;10.20;7.15;;;;;;;;;;5058030;28;20037;-75
2023/07/07 13:17:36;;;;;;;8.57;7.68;;;;;;;;;;5057029;28;20020;-73
2023/07/07 13:20:04;;;;;;;8.70;7.90;;;;;;;;;;5052027;28;20029;-75
2023/07/07 13:22:35;;;;;;;7.90;7.10;;;;;;;;;;5058791;28;20045;-76
2023/07/07 13:25:05;;;;;;;8.25;7.45;;;;;;;;;;5056796;28;20090;-74
2023/07/07 13:27:30;;;;;;;7.55;6.85;;;;;;;;;;5057324;28;20058;-76
2023/07/07 13:30:13;;;;;;;8.60;7.40;;;;;;;;;;5056240;28;20029;-75
2023/07/07 13:32:39;;;;;;;8.60;7.07;;;;;;;;;;5056766;28;20455;-74
2023/07/07 13:35:04;;;;;;;6.60;6.00;;;;;;;;;;5057824;28;20032;-74
2023/07/07 13:37:30;;;;;;;7.82;5.28;;;;;;;;;;5059134;28;20026;-74
2023/07/07 13:39:56;;;;;;;6.38;5.80;;;;;;;;;;5059551;28;20067;-75
2023/07/07 13:42:24;;;;;;;7.47;6.57;;;;;;;;;;5060160;28;20035;-75
2023/07/07 13:45:04;;;;;;;7.35;6.72;;;;;;;;;;5059596;28;20046;-75
2023/07/07 13:47:31;;;;;;;7.13;6.15;;;;;;;;;;5079441;28;20021;-75
2023/07/07 13:49:58;;;;;;;8.27;6.18;;;;;;;;;;5060246;28;20024;-76
2023/07/07 13:52:24;;;;;;;7.25;6.47;;;;;;;;;;5058334;28;20016;-74
2023/07/07 13:54:50;;;;;;;8.02;6.22;;;;;;;;;;5058960;28;20029;-75
2023/07/07 13:57:21;;;;;;;6.25;5.65;;;;;;;;;;5057213;28;20074;-76
2023/07/07 13:59:47;;;;;;;5.95;5.43;;;;;;;;;;5060391;28;20029;-76
2023/07/07 14:02:14;;;;;;;8.20;6.22;;;;;;;;;;5075943;28;20447;-73
2023/07/07 14:04:43;;;;;;;9.30;6.35;;;;;;;;;;5057569;28;20033;-76
2023/07/07 14:07:08;;;;;;;;;;;;;;;;;;5059396;28;20071;-73
2023/07/07 14:09:38;;;;;;;6.83;6.23;;;;;;;;;;5060525;28;19921;-73
2023/07/07 14:12:08;;;;;;;6.45;5.85;;;;;;;;;;5059615;28;20039;-74
2023/07/07 14:14:34;;;;;;;6.53;6.00;;;;;;;;;;5058831;28;20032;-74
2023/07/07 14:17:02;;;;;;;6.75;6.15;;;;;;;;;;5059327;28;20104;-77
2023/07/07 14:19:35;;;;;;;8.27;6.78;;;;;;;;;;5060384;28;20042;-74
2023/07/07 14:22:00;;;;;;;7.57;6.55;;;;;;;;;;5061914;28;20048;-74
2023/07/07 14:24:27;;;;;;;7.53;6.75;;;;;;;;;;5059713;28;20023;-75
2023/07/07 14:26:52;;;;;;;7.97;7.15;;;;;;;;;;5057858;28;20031;-74
2023/07/07 14:29:22;;;;;;;7.60;6.90;;;;;;;;;;5055732;28;20020;-77
2023/07/07 14:31:47;;;;;;;8.95;7.95;;;;;;;;;;5056929;28;20052;-76
2023/07/07 14:34:13;;;;;;;8.10;7.40;;;;;;;;;;5059791;28;20324;-77